Summerland Key, FL

12:03 AM EDT on August 22, 2014 (GMT -0400)
Key West International | Change Station
CLOSE
Current Station
Airport
Location: Key West,
Elevation: 0 ft
Nearby Weather Stations

Elev 0 ft 24.56 °N, 81.75 °W | Updated 10 minutes ago

Clear
Clear
85 °F
Feels Like 94 °F
N
6
Wind Variable Wind from ENE

Today
High -- | Low -- °F
--% Chance of Precip.
Yesterday
High -- | Low -- °F
Precip. -- in
7:03 AM 7:53 PM
Waning Crescent, 10% visible
Pressure 30.11 in
Visibility 10.0 miles
Clouds Clear
Heat Index 94 °F
Dew Point 76 °F
Humidity 74%
Rainfall 0.00 in
Snow Depth Not available.
UV 0 out of 12
Pollen 5.20 out of 12
Air Quality Not available.
Flu Activity Not available.
METAR KEYW 220353Z AUTO 06005KT 10SM CLR 29/24 A3010 RMK AO2 RAE02 SLP194 P0000 T02940244

More Conditions Fewer Conditions

Pressure 30.11 in
Visibility 10.0 miles
Clouds Clear
Heat Index 94 °F
Dew Point 76 °F
Humidity 74%
Rainfall 0.00 in
Snow Depth Not available.
UV 0 out of 12
Pollen 5.20 out of 12
Air Quality Not available.
Flu Activity Not available.
METAR KEYW 220353Z AUTO 06005KT 10SM CLR 29/24 A3010 RMK AO2 RAE02 SLP194 P0000 T02940244

More Conditions Fewer Conditions

Nowcast | as of 10:48 PM EDT on August 21, 2014

Through midnight...clusters of showers and thunderstorms will continue across the offshore Gulf waters 25 to 45 nm west of East Cape Sable...as well as the nearshore Gulf waters north of the Lower Keys. Elsewhere on the waters...isolated showers and thunderstorms will be found across the Florida Straits beyond 30 nm offshore of the upper and middle Florida Keys. Mariners in the path of the strongest showers and thunderstorms will encounter very brief heavy rainfall accompanied by cut visibility down below a nautical mile...isolated wind gusts around 25 knots...and occasional lightning strikes. Movement of these showers and storms continues the west near 10 knots.

×

10-Day Weather Forecast

Almanac

Astronomy

Aug. 22, 2014 Rise Set
Actual Time 7:03 AM EDT 7:53 PM EDT
Civil Twilight 6:39 AM EDT 8:17 PM EDT
Nautical Twilight 6:12 AM EDT 8:45 PM EDT
Astronomical Twilight 5:43 AM EDT 9:13 PM EDT
Moon 4:32 AM EDT 5:55 PM EDT
Length of Visible Light 13h 37m
Length of Day
12h 50m
Tomorrow will be 1m 19s shorter.
Waning Crescent, 10% of the Moon is Illuminated
Today
Waning Crescent
Aug 25
New
Sep 2
First Quarter
Sep 8
Full
Sep 15
Last Quarter

Yesterday's Extremes

State Highs State Lows

Community

WunderPhotos

Upload Photos

1,746,125 photos uploaded!

Nearby

Snow Depth

Station Depth Elevation
No new snow has been reported.

Earthquake Activity

City Distance Mag. Time & Date
No recent earthquake activity has been reported nearby.
Minimum magnitude displayed is 2.5.

Coastal Water Temperatures

Place Temperature
Key West, FL 88.0 °F
Vaca Key, FL 91.0 °F

Nearby Weather Stations